sensor_id;sensor_type;location;lat;lon;timestamp;temperature;humidity
35613;DHT22;22054;51.646;7.078;2023-04-02T00:00:27;7.50;99.90
35613;DHT22;22054;51.646;7.078;2023-04-02T00:05:27;7.50;99.90
35613;DHT22;22054;51.646;7.078;2023-04-02T00:08:35;7.50;99.90
35613;DHT22;22054;51.646;7.078;2023-04-02T00:11:08;7.40;99.90
35613;DHT22;22054;51.646;7.078;2023-04-02T00:13:44;7.40;99.90
35613;DHT22;22054;51.646;7.078;2023-04-02T00:16:17;7.30;99.90
35613;DHT22;22054;51.646;7.078;2023-04-02T00:18:51;7.30;99.90
35613;DHT22;22054;51.646;7.078;2023-04-02T00:21:31;7.40;99.90
35613;DHT22;22054;51.646;7.078;2023-04-02T00:24:01;7.40;99.90
35613;DHT22;22054;51.646;7.078;2023-04-02T00:26:37;7.40;99.90
35613;DHT22;22054;51.646;7.078;2023-04-02T00:29:06;7.40;99.90
35613;DHT22;22054;51.646;7.078;2023-04-02T00:31:32;7.40;99.90
35613;DHT22;22054;51.646;7.078;2023-04-02T00:34:00;7.40;99.90
35613;DHT22;22054;51.646;7.078;2023-04-02T00:36:30;7.40;99.90
35613;DHT22;22054;51.646;7.078;2023-04-02T00:39:03;7.30;99.90
35613;DHT22;22054;51.646;7.078;2023-04-02T00:41:36;7.30;99.90
35613;DHT22;22054;51.646;7.078;2023-04-02T00:44:03;7.30;99.90
35613;DHT22;22054;51.646;7.078;2023-04-02T00:46:38;7.40;99.90
35613;DHT22;22054;51.646;7.078;2023-04-02T00:49:24;7.40;99.90
35613;DHT22;22054;51.646;7.078;2023-04-02T00:52:05;7.40;99.90
35613;DHT22;22054;51.646;7.078;2023-04-02T00:54:51;7.50;99.90
35613;DHT22;22054;51.646;7.078;2023-04-02T00:57:24;7.40;99.90
35613;DHT22;22054;51.646;7.078;2023-04-02T00:59:55;7.40;99.90
35613;DHT22;22054;51.646;7.078;2023-04-02T01:02:42;7.50;99.90
35613;DHT22;22054;51.646;7.078;2023-04-02T01:16:30;7.10;99.90
35613;DHT22;22054;51.646;7.078;2023-04-02T01:25:40;7.00;99.90
35613;DHT22;22054;51.646;7.078;2023-04-02T01:28:27;7.00;99.90
35613;DHT22;22054;51.646;7.078;2023-04-02T01:31:00;7.10;99.90
35613;DHT22;22054;51.646;7.078;2023-04-02T01:33:29;7.00;99.90
35613;DHT22;22054;51.646;7.078;2023-04-02T01:36:27;7.00;99.90
35613;DHT22;22054;51.646;7.078;2023-04-02T01:44:52;7.00;99.90
35613;DHT22;22054;51.646;7.078;2023-04-02T01:47:22;7.00;99.90
35613;DHT22;22054;51.646;7.078;2023-04-02T01:50:03;6.90;99.90
35613;DHT22;22054;51.646;7.078;2023-04-02T01:52:39;6.90;99.90
35613;DHT22;22054;51.646;7.078;2023-04-02T01:55:11;6.90;99.90
35613;DHT22;22054;51.646;7.078;2023-04-02T01:57:47;6.90;99.90
35613;DHT22;22054;51.646;7.078;2023-04-02T02:00:16;6.80;99.90
35613;DHT22;22054;51.646;7.078;2023-04-02T02:02:46;6.80;99.90
35613;DHT22;22054;51.646;7.078;2023-04-02T02:05:15;6.70;99.90
35613;DHT22;22054;51.646;7.078;2023-04-02T02:07:44;6.70;99.90
35613;DHT22;22054;51.646;7.078;2023-04-02T02:10:16;6.70;99.90
35613;DHT22;22054;51.646;7.078;2023-04-02T02:12:47;6.70;99.90
35613;DHT22;22054;51.646;7.078;2023-04-02T02:15:19;6.60;99.90
35613;DHT22;22054;51.646;7.078;2023-04-02T02:17:47;6.60;99.90
35613;DHT22;22054;51.646;7.078;2023-04-02T02:20:14;6.60;99.90
35613;DHT22;22054;51.646;7.078;2023-04-02T02:22:48;6.60;99.90
35613;DHT22;22054;51.646;7.078;2023-04-02T02:25:20;6.60;99.90
35613;DHT22;22054;51.646;7.078;2023-04-02T02:28:07;6.60;99.90
35613;DHT22;22054;51.646;7.078;2023-04-02T02:30:42;6.60;99.90
35613;DHT22;22054;51.646;7.078;2023-04-02T02:33:23;6.60;99.90
35613;DHT22;22054;51.646;7.078;2023-04-02T02:35:54;6.70;99.90
35613;DHT22;22054;51.646;7.078;2023-04-02T02:38:49;6.50;99.90
35613;DHT22;22054;51.646;7.078;2023-04-02T02:42:12;6.50;99.90
35613;DHT22;22054;51.646;7.078;2023-04-02T02:44:53;6.40;99.90
35613;DHT22;22054;51.646;7.078;2023-04-02T02:47:34;6.40;99.90
35613;DHT22;22054;51.646;7.078;2023-04-02T02:50:03;6.40;99.90
35613;DHT22;22054;51.646;7.078;2023-04-02T02:52:34;6.50;99.90
35613;DHT22;22054;51.646;7.078;2023-04-02T02:57:46;6.40;99.90
35613;DHT22;22054;51.646;7.078;2023-04-02T03:00:14;6.50;99.90
35613;DHT22;22054;51.646;7.078;2023-04-02T03:02:43;6.50;99.90
35613;DHT22;22054;51.646;7.078;2023-04-02T03:05:19;6.40;99.90
35613;DHT22;22054;51.646;7.078;2023-04-02T03:07:46;6.40;99.90
35613;DHT22;22054;51.646;7.078;2023-04-02T03:10:28;6.30;99.90
35613;DHT22;22054;51.646;7.078;2023-04-02T03:13:19;6.40;99.90
35613;DHT22;22054;51.646;7.078;2023-04-02T03:18:39;6.40;99.90
35613;DHT22;22054;51.646;7.078;2023-04-02T03:21:41;6.40;99.90
35613;DHT22;22054;51.646;7.078;2023-04-02T03:24:37;6.50;99.90
35613;DHT22;22054;51.646;7.078;2023-04-02T03:27:21;6.40;99.90
35613;DHT22;22054;51.646;7.078;2023-04-02T03:32:50;6.30;99.90
35613;DHT22;22054;51.646;7.078;2023-04-02T03:38:20;6.30;99.90
35613;DHT22;22054;51.646;7.078;2023-04-02T03:41:03;6.30;99.90
35613;DHT22;22054;51.646;7.078;2023-04-02T03:43:39;6.20;99.90
35613;DHT22;22054;51.646;7.078;2023-04-02T03:46:12;6.10;99.90
35613;DHT22;22054;51.646;7.078;2023-04-02T03:48:48;6.10;99.90
35613;DHT22;22054;51.646;7.078;2023-04-02T03:52:14;6.00;99.90
35613;DHT22;22054;51.646;7.078;2023-04-02T03:54:29;6.00;99.90
35613;DHT22;22054;51.646;7.078;2023-04-02T03:56:56;6.00;99.90
35613;DHT22;22054;51.646;7.078;2023-04-02T03:59:46;6.00;99.90
35613;DHT22;22054;51.646;7.078;2023-04-02T04:04:52;5.90;99.90
35613;DHT22;22054;51.646;7.078;2023-04-02T04:07:40;5.80;99.90
35613;DHT22;22054;51.646;7.078;2023-04-02T04:10:08;5.70;99.90
35613;DHT22;22054;51.646;7.078;2023-04-02T04:12:45;5.70;99.90
35613;DHT22;22054;51.646;7.078;2023-04-02T04:15:18;5.60;99.90
35613;DHT22;22054;51.646;7.078;2023-04-02T04:23:35;5.70;99.90
35613;DHT22;22054;51.646;7.078;2023-04-02T04:26:06;5.80;99.90
35613;DHT22;22054;51.646;7.078;2023-04-02T04:29:34;5.80;99.90
35613;DHT22;22054;51.646;7.078;2023-04-02T04:34:55;5.90;99.90
35613;DHT22;22054;51.646;7.078;2023-04-02T04:37:35;5.90;99.90
35613;DHT22;22054;51.646;7.078;2023-04-02T04:42:38;5.90;99.90
35613;DHT22;22054;51.646;7.078;2023-04-02T04:45:24;5.90;99.90
35613;DHT22;22054;51.646;7.078;2023-04-02T04:48:12;5.90;99.90
35613;DHT22;22054;51.646;7.078;2023-04-02T04:50:51;5.90;99.90
35613;DHT22;22054;51.646;7.078;2023-04-02T04:53:21;5.80;99.90
35613;DHT22;22054;51.646;7.078;2023-04-02T04:55:53;5.80;99.90
35613;DHT22;22054;51.646;7.078;2023-04-02T05:06:25;5.80;99.90
35613;DHT22;22054;51.646;7.078;2023-04-02T05:09:05;5.80;99.90
35613;DHT22;22054;51.646;7.078;2023-04-02T05:11:46;5.80;99.90
35613;DHT22;22054;51.646;7.078;2023-04-02T05:14:55;5.80;99.90
35613;DHT22;22054;51.646;7.078;2023-04-02T05:17:28;5.70;99.90
35613;DHT22;22054;51.646;7.078;2023-04-02T05:23:09;5.60;99.90
35613;DHT22;22054;51.646;7.078;2023-04-02T05:28:45;5.60;99.90
35613;DHT22;22054;51.646;7.078;2023-04-02T05:34:03;5.60;99.90
35613;DHT22;22054;51.646;7.078;2023-04-02T05:36:30;5.60;99.90
35613;DHT22;22054;51.646;7.078;2023-04-02T05:38:56;5.50;99.90
35613;DHT22;22054;51.646;7.078;2023-04-02T05:41:26;5.50;99.90
35613;DHT22;22054;51.646;7.078;2023-04-02T05:44:05;5.50;99.90
35613;DHT22;22054;51.646;7.078;2023-04-02T05:46:44;5.60;99.90
35613;DHT22;22054;51.646;7.078;2023-04-02T05:49:25;5.60;99.90
35613;DHT22;22054;51.646;7.078;2023-04-02T05:51:59;5.60;99.90
35613;DHT22;22054;51.646;7.078;2023-04-02T05:54:41;5.60;99.90
35613;DHT22;22054;51.646;7.078;2023-04-02T05:57:33;5.50;99.90
35613;DHT22;22054;51.646;7.078;2023-04-02T06:00:06;5.50;99.90
35613;DHT22;22054;51.646;7.078;2023-04-02T06:02:43;5.50;99.90
35613;DHT22;22054;51.646;7.078;2023-04-02T06:05:24;5.50;99.90
35613;DHT22;22054;51.646;7.078;2023-04-02T06:08:16;5.60;99.90
35613;DHT22;22054;51.646;7.078;2023-04-02T06:10:57;5.50;99.90
35613;DHT22;22054;51.646;7.078;2023-04-02T06:13:26;5.60;99.90
35613;DHT22;22054;51.646;7.078;2023-04-02T06:15:52;5.60;99.90
35613;DHT22;22054;51.646;7.078;2023-04-02T06:18:44;5.60;99.90
35613;DHT22;22054;51.646;7.078;2023-04-02T06:21:15;5.60;99.90
35613;DHT22;22054;51.646;7.078;2023-04-02T06:23:58;5.60;99.90
35613;DHT22;22054;51.646;7.078;2023-04-02T06:26:36;5.60;99.90
35613;DHT22;22054;51.646;7.078;2023-04-02T06:31:54;5.60;99.90
35613;DHT22;22054;51.646;7.078;2023-04-02T06:34:24;5.60;99.90
35613;DHT22;22054;51.646;7.078;2023-04-02T06:36:55;5.50;99.90
35613;DHT22;22054;51.646;7.078;2023-04-02T06:39:24;5.50;99.90
35613;DHT22;22054;51.646;7.078;2023-04-02T06:42:05;5.40;99.90
35613;DHT22;22054;51.646;7.078;2023-04-02T06:44:36;5.40;99.90
35613;DHT22;22054;51.646;7.078;2023-04-02T06:49:44;5.40;99.90
35613;DHT22;22054;51.646;7.078;2023-04-02T06:52:27;5.50;99.90
35613;DHT22;22054;51.646;7.078;2023-04-02T06:54:55;5.50;99.90
35613;DHT22;22054;51.646;7.078;2023-04-02T06:57:21;5.60;99.90
35613;DHT22;22054;51.646;7.078;2023-04-02T06:59:47;5.60;99.90
35613;DHT22;22054;51.646;7.078;2023-04-02T07:02:32;5.70;99.90
35613;DHT22;22054;51.646;7.078;2023-04-02T07:05:08;5.80;99.90
35613;DHT22;22054;51.646;7.078;2023-04-02T07:07:34;5.90;99.90
35613;DHT22;22054;51.646;7.078;2023-04-02T07:10:00;5.80;99.90
35613;DHT22;22054;51.646;7.078;2023-04-02T07:12:26;5.70;99.90
35613;DHT22;22054;51.646;7.078;2023-04-02T07:14:52;5.70;99.90
35613;DHT22;22054;51.646;7.078;2023-04-02T07:17:18;5.70;99.90
35613;DHT22;22054;51.646;7.078;2023-04-02T07:19:45;5.60;99.90
35613;DHT22;22054;51.646;7.078;2023-04-02T07:22:16;5.70;99.90
35613;DHT22;22054;51.646;7.078;2023-04-02T07:24:43;5.80;99.90
35613;DHT22;22054;51.646;7.078;2023-04-02T07:27:10;5.80;99.90
35613;DHT22;22054;51.646;7.078;2023-04-02T07:29:37;5.80;99.90
35613;DHT22;22054;51.646;7.078;2023-04-02T07:32:10;5.80;99.90
35613;DHT22;22054;51.646;7.078;2023-04-02T07:34:38;5.80;99.90
35613;DHT22;22054;51.646;7.078;2023-04-02T07:37:05;5.90;99.90
35613;DHT22;22054;51.646;7.078;2023-04-02T07:39:31;5.90;99.90
35613;DHT22;22054;51.646;7.078;2023-04-02T07:41:59;5.90;99.90
35613;DHT22;22054;51.646;7.078;2023-04-02T07:44:26;5.80;99.90
35613;DHT22;22054;51.646;7.078;2023-04-02T07:46:52;5.90;99.90
35613;DHT22;22054;51.646;7.078;2023-04-02T07:49:19;5.90;99.90
35613;DHT22;22054;51.646;7.078;2023-04-02T07:51:44;6.00;99.90
35613;DHT22;22054;51.646;7.078;2023-04-02T07:54:10;6.30;99.90
35613;DHT22;22054;51.646;7.078;2023-04-02T07:56:37;6.20;99.90
35613;DHT22;22054;51.646;7.078;2023-04-02T07:59:03;6.30;99.90
35613;DHT22;22054;51.646;7.078;2023-04-02T08:01:30;6.30;99.90
35613;DHT22;22054;51.646;7.078;2023-04-02T08:04:01;6.30;99.90
35613;DHT22;22054;51.646;7.078;2023-04-02T08:06:28;6.40;99.90
35613;DHT22;22054;51.646;7.078;2023-04-02T08:08:54;6.60;99.90
35613;DHT22;22054;51.646;7.078;2023-04-02T08:11:21;6.60;99.90
35613;DHT22;22054;51.646;7.078;2023-04-02T08:13:46;6.60;99.90
35613;DHT22;22054;51.646;7.078;2023-04-02T08:16:12;6.70;99.90
35613;DHT22;22054;51.646;7.078;2023-04-02T08:18:38;6.70;99.90
35613;DHT22;22054;51.646;7.078;2023-04-02T08:21:08;6.70;99.90
35613;DHT22;22054;51.646;7.078;2023-04-02T08:23:35;6.80;99.90
35613;DHT22;22054;51.646;7.078;2023-04-02T08:26:02;6.80;99.90
35613;DHT22;22054;51.646;7.078;2023-04-02T08:28:28;6.90;99.90
35613;DHT22;22054;51.646;7.078;2023-04-02T08:30:54;6.90;99.90
35613;DHT22;22054;51.646;7.078;2023-04-02T08:33:20;7.00;99.90
35613;DHT22;22054;51.646;7.078;2023-04-02T08:35:47;6.90;99.90
35613;DHT22;22054;51.646;7.078;2023-04-02T08:38:19;6.70;99.90
35613;DHT22;22054;51.646;7.078;2023-04-02T08:40:51;6.60;99.90
35613;DHT22;22054;51.646;7.078;2023-04-02T08:46:22;6.60;99.90
35613;DHT22;22054;51.646;7.078;2023-04-02T08:48:58;6.70;99.90
35613;DHT22;22054;51.646;7.078;2023-04-02T08:51:28;6.90;99.90
35613;DHT22;22054;51.646;7.078;2023-04-02T08:54:04;7.20;99.90
35613;DHT22;22054;51.646;7.078;2023-04-02T08:56:39;7.20;99.90
35613;DHT22;22054;51.646;7.078;2023-04-02T08:59:34;7.50;99.90
35613;DHT22;22054;51.646;7.078;2023-04-02T09:02:23;7.60;99.90
35613;DHT22;22054;51.646;7.078;2023-04-02T09:04:52;7.60;99.90
35613;DHT22;22054;51.646;7.078;2023-04-02T09:07:20;7.70;99.90
35613;DHT22;22054;51.646;7.078;2023-04-02T09:09:47;7.80;99.90
35613;DHT22;22054;51.646;7.078;2023-04-02T09:12:19;7.90;99.90
35613;DHT22;22054;51.646;7.078;2023-04-02T09:18:13;7.90;99.90
35613;DHT22;22054;51.646;7.078;2023-04-02T09:20:41;7.80;99.90
35613;DHT22;22054;51.646;7.078;2023-04-02T09:23:19;7.80;99.90
35613;DHT22;22054;51.646;7.078;2023-04-02T09:25:53;7.80;99.90
35613;DHT22;22054;51.646;7.078;2023-04-02T09:28:19;7.80;99.90
35613;DHT22;22054;51.646;7.078;2023-04-02T09:34:32;7.70;99.90
35613;DHT22;22054;51.646;7.078;2023-04-02T09:37:07;7.70;99.90
35613;DHT22;22054;51.646;7.078;2023-04-02T09:39:37;7.90;99.90
35613;DHT22;22054;51.646;7.078;2023-04-02T09:42:10;8.00;99.90
35613;DHT22;22054;51.646;7.078;2023-04-02T09:45:12;8.10;99.90
35613;DHT22;22054;51.646;7.078;2023-04-02T09:47:38;7.80;99.90
35613;DHT22;22054;51.646;7.078;2023-04-02T09:50:27;7.60;99.90
35613;DHT22;22054;51.646;7.078;2023-04-02T09:52:57;7.40;99.90
35613;DHT22;22054;51.646;7.078;2023-04-02T10:00:38;7.50;99.90
35613;DHT22;22054;51.646;7.078;2023-04-02T10:03:26;7.70;99.90
35613;DHT22;22054;51.646;7.078;2023-04-02T10:06:11;7.70;99.90
35613;DHT22;22054;51.646;7.078;2023-04-02T10:08:41;7.60;99.90
35613;DHT22;22054;51.646;7.078;2023-04-02T10:11:22;7.60;99.90
35613;DHT22;22054;51.646;7.078;2023-04-02T10:13:59;7.60;99.90
35613;DHT22;22054;51.646;7.078;2023-04-02T10:16:33;7.80;99.90
35613;DHT22;22054;51.646;7.078;2023-04-02T10:19:21;7.80;99.90
35613;DHT22;22054;51.646;7.078;2023-04-02T10:22:02;7.90;99.90
35613;DHT22;22054;51.646;7.078;2023-04-02T10:24:30;8.10;99.90
35613;DHT22;22054;51.646;7.078;2023-04-02T10:38:39;7.90;99.90
35613;DHT22;22054;51.646;7.078;2023-04-02T10:41:19;8.30;99.90
35613;DHT22;22054;51.646;7.078;2023-04-02T10:43:48;8.30;99.90
35613;DHT22;22054;51.646;7.078;2023-04-02T10:46:47;8.20;99.90
35613;DHT22;22054;51.646;7.078;2023-04-02T10:49:36;8.30;99.90
35613;DHT22;22054;51.646;7.078;2023-04-02T10:52:11;8.30;99.90
35613;DHT22;22054;51.646;7.078;2023-04-02T10:54:52;8.50;99.90
35613;DHT22;22054;51.646;7.078;2023-04-02T10:57:30;8.80;99.90
35613;DHT22;22054;51.646;7.078;2023-04-02T11:02:40;9.10;99.90
35613;DHT22;22054;51.646;7.078;2023-04-02T11:05:46;9.00;99.90
35613;DHT22;22054;51.646;7.078;2023-04-02T11:11:17;8.90;99.90
35613;DHT22;22054;51.646;7.078;2023-04-02T11:13:59;8.90;99.90
35613;DHT22;22054;51.646;7.078;2023-04-02T11:16:26;8.90;99.90
35613;DHT22;22054;51.646;7.078;2023-04-02T11:19:23;9.00;99.90
35613;DHT22;22054;51.646;7.078;2023-04-02T11:22:34;9.00;99.90
35613;DHT22;22054;51.646;7.078;2023-04-02T11:27:34;9.00;99.90
35613;DHT22;22054;51.646;7.078;2023-04-02T11:32:42;9.10;99.90
35613;DHT22;22054;51.646;7.078;2023-04-02T11:40:50;9.70;99.90
35613;DHT22;22054;51.646;7.078;2023-04-02T11:46:05;9.70;99.90
35613;DHT22;22054;51.646;7.078;2023-04-02T11:48:53;9.60;99.90
35613;DHT22;22054;51.646;7.078;2023-04-02T11:53:45;9.60;99.90
35613;DHT22;22054;51.646;7.078;2023-04-02T11:56:30;9.90;99.90
35613;DHT22;22054;51.646;7.078;2023-04-02T12:02:13;10.00;99.90
35613;DHT22;22054;51.646;7.078;2023-04-02T12:10:05;10.60;99.90
35613;DHT22;22054;51.646;7.078;2023-04-02T12:12:40;10.70;99.90
35613;DHT22;22054;51.646;7.078;2023-04-02T12:15:37;10.90;99.90
35613;DHT22;22054;51.646;7.078;2023-04-02T12:18:18;11.40;99.90
35613;DHT22;22054;51.646;7.078;2023-04-02T12:20:52;11.70;99.90
35613;DHT22;22054;51.646;7.078;2023-04-02T12:23:30;11.90;99.90
35613;DHT22;22054;51.646;7.078;2023-04-02T12:26:03;11.70;99.90
35613;DHT22;22054;51.646;7.078;2023-04-02T12:28:34;11.50;99.90
35613;DHT22;22054;51.646;7.078;2023-04-02T12:33:36;11.60;99.90
35613;DHT22;22054;51.646;7.078;2023-04-02T12:38:44;11.50;99.90
35613;DHT22;22054;51.646;7.078;2023-04-02T12:41:24;11.40;99.90
35613;DHT22;22054;51.646;7.078;2023-04-02T12:46:46;11.50;99.90
35613;DHT22;22054;51.646;7.078;2023-04-02T12:49:33;11.50;99.90
35613;DHT22;22054;51.646;7.078;2023-04-02T12:52:05;11.50;99.90
35613;DHT22;22054;51.646;7.078;2023-04-02T12:55:14;12.10;99.90
35613;DHT22;22054;51.646;7.078;2023-04-02T12:57:33;14.10;99.90
35613;DHT22;22054;51.646;7.078;2023-04-02T13:02:48;15.60;98.70
35613;DHT22;22054;51.646;7.078;2023-04-02T13:05:37;15.40;96.20
35613;DHT22;22054;51.646;7.078;2023-04-02T13:08:22;14.60;98.10
35613;DHT22;22054;51.646;7.078;2023-04-02T13:11:03;14.00;99.00
35613;DHT22;22054;51.646;7.078;2023-04-02T13:13:39;13.40;99.90
35613;DHT22;22054;51.646;7.078;2023-04-02T13:18:46;13.30;99.90
35613;DHT22;22054;51.646;7.078;2023-04-02T13:23:45;14.70;99.90
35613;DHT22;22054;51.646;7.078;2023-04-02T13:26:18;15.90;98.50
35613;DHT22;22054;51.646;7.078;2023-04-02T13:29:09;15.80;98.20
35613;DHT22;22054;51.646;7.078;2023-04-02T13:31:43;15.00;97.00
35613;DHT22;22054;51.646;7.078;2023-04-02T13:34:09;14.20;97.10
35613;DHT22;22054;51.646;7.078;2023-04-02T13:36:35;13.60;99.90
35613;DHT22;22054;51.646;7.078;2023-04-02T13:39:02;13.10;99.90
35613;DHT22;22054;51.646;7.078;2023-04-02T13:41:30;12.70;99.90
35613;DHT22;22054;51.646;7.078;2023-04-02T13:44:00;12.80;99.90
35613;DHT22;22054;51.646;7.078;2023-04-02T13:46:32;13.30;99.90
35613;DHT22;22054;51.646;7.078;2023-04-02T13:48:59;14.20;99.90
35613;DHT22;22054;51.646;7.078;2023-04-02T13:51:49;14.80;98.00
35613;DHT22;22054;51.646;7.078;2023-04-02T13:54:26;14.20;97.40
35613;DHT22;22054;51.646;7.078;2023-04-02T13:56:58;13.40;97.60
35613;DHT22;22054;51.646;7.078;2023-04-02T13:59:24;13.90;99.90
35613;DHT22;22054;51.646;7.078;2023-04-02T14:01:54;16.10;97.50
35613;DHT22;22054;51.646;7.078;2023-04-02T14:04:29;18.50;91.30
35613;DHT22;22054;51.646;7.078;2023-04-02T14:07:23;20.20;74.00
35613;DHT22;22054;51.646;7.078;2023-04-02T14:10:25;21.20;64.30
35613;DHT22;22054;51.646;7.078;2023-04-02T14:16:17;21.60;57.10
35613;DHT22;22054;51.646;7.078;2023-04-02T14:19:08;22.10;55.50
35613;DHT22;22054;51.646;7.078;2023-04-02T14:22:40;22.50;55.30
35613;DHT22;22054;51.646;7.078;2023-04-02T14:28:23;23.30;49.70
35613;DHT22;22054;51.646;7.078;2023-04-02T14:31:24;21.70;53.30
35613;DHT22;22054;51.646;7.078;2023-04-02T14:42:18;16.40;70.70
35613;DHT22;22054;51.646;7.078;2023-04-02T14:47:56;19.80;63.70
35613;DHT22;22054;51.646;7.078;2023-04-02T14:50:39;21.50;57.50
35613;DHT22;22054;51.646;7.078;2023-04-02T14:53:24;22.80;53.20
35613;DHT22;22054;51.646;7.078;2023-04-02T14:55:53;24.10;54.30
35613;DHT22;22054;51.646;7.078;2023-04-02T14:58:28;24.70;51.30
35613;DHT22;22054;51.646;7.078;2023-04-02T15:01:09;23.20;50.90
35613;DHT22;22054;51.646;7.078;2023-04-02T15:03:54;21.30;56.20
35613;DHT22;22054;51.646;7.078;2023-04-02T15:06:26;21.90;56.40
35613;DHT22;22054;51.646;7.078;2023-04-02T15:09:04;22.40;52.20
35613;DHT22;22054;51.646;7.078;2023-04-02T15:11:40;23.80;50.50
35613;DHT22;22054;51.646;7.078;2023-04-02T15:14:17;25.30;50.60
35613;DHT22;22054;51.646;7.078;2023-04-02T15:16:44;25.90;47.00
35613;DHT22;22054;51.646;7.078;2023-04-02T15:19:15;26.20;46.40
35613;DHT22;22054;51.646;7.078;2023-04-02T15:22:03;26.50;43.70
35613;DHT22;22054;51.646;7.078;2023-04-02T15:27:59;23.20;46.90
35613;DHT22;22054;51.646;7.078;2023-04-02T15:30:29;21.50;48.80
35613;DHT22;22054;51.646;7.078;2023-04-02T15:42:38;19.10;53.30
35613;DHT22;22054;51.646;7.078;2023-04-02T15:45:32;17.70;57.00
35613;DHT22;22054;51.646;7.078;2023-04-02T15:53:33;20.60;54.80
35613;DHT22;22054;51.646;7.078;2023-04-02T16:02:01;21.40;52.30
35613;DHT22;22054;51.646;7.078;2023-04-02T16:05:28;21.40;52.40
35613;DHT22;22054;51.646;7.078;2023-04-02T16:10:52;21.10;50.80
35613;DHT22;22054;51.646;7.078;2023-04-02T16:13:33;20.20;50.70
35613;DHT22;22054;51.646;7.078;2023-04-02T16:16:14;19.20;53.00
35613;DHT22;22054;51.646;7.078;2023-04-02T16:18:52;18.40;54.60
35613;DHT22;22054;51.646;7.078;2023-04-02T16:22:01;18.30;56.90
35613;DHT22;22054;51.646;7.078;2023-04-02T16:24:34;18.20;56.60
35613;DHT22;22054;51.646;7.078;2023-04-02T16:36:34;18.90;55.00
35613;DHT22;22054;51.646;7.078;2023-04-02T16:48:53;18.20;54.80
35613;DHT22;22054;51.646;7.078;2023-04-02T16:57:33;17.70;58.10
35613;DHT22;22054;51.646;7.078;2023-04-02T17:03:17;17.10;58.70
35613;DHT22;22054;51.646;7.078;2023-04-02T17:09:16;14.40;67.20
35613;DHT22;22054;51.646;7.078;2023-04-02T17:14:37;13.20;78.80
35613;DHT22;22054;51.646;7.078;2023-04-02T17:17:08;12.70;82.40
35613;DHT22;22054;51.646;7.078;2023-04-02T17:19:40;12.30;86.20
35613;DHT22;22054;51.646;7.078;2023-04-02T17:22:18;12.00;88.50
35613;DHT22;22054;51.646;7.078;2023-04-02T17:25:00;11.70;92.30
35613;DHT22;22054;51.646;7.078;2023-04-02T17:27:41;11.90;95.00
35613;DHT22;22054;51.646;7.078;2023-04-02T17:30:15;11.70;95.10
35613;DHT22;22054;51.646;7.078;2023-04-02T17:32:46;11.10;97.30
35613;DHT22;22054;51.646;7.078;2023-04-02T17:38:31;10.10;90.10
35613;DHT22;22054;51.646;7.078;2023-04-02T17:44:52;9.50;1.00
35613;DHT22;22054;51.646;7.078;2023-04-02T17:50:52;9.20;31.50
35613;DHT22;22054;51.646;7.078;2023-04-02T17:59:51;8.50;1.00
35613;DHT22;22054;51.646;7.078;2023-04-02T18:08:01;8.10;1.00
35613;DHT22;22054;51.646;7.078;2023-04-02T18:11:29;7.90;99.90
35613;DHT22;22054;51.646;7.078;2023-04-02T18:17:52;7.70;1.00
35613;DHT22;22054;51.646;7.078;2023-04-02T18:20:31;7.50;1.00
35613;DHT22;22054;51.646;7.078;2023-04-02T18:23:43;7.40;1.00
35613;DHT22;22054;51.646;7.078;2023-04-02T18:35:14;7.00;1.00
35613;DHT22;22054;51.646;7.078;2023-04-02T18:37:56;7.00;1.00
35613;DHT22;22054;51.646;7.078;2023-04-02T18:49:25;6.70;1.00
35613;DHT22;22054;51.646;7.078;2023-04-02T18:52:00;6.60;1.00
35613;DHT22;22054;51.646;7.078;2023-04-02T18:54:31;6.50;1.00
35613;DHT22;22054;51.646;7.078;2023-04-02T18:57:00;6.40;1.00
35613;DHT22;22054;51.646;7.078;2023-04-02T18:59:51;6.40;1.00
35613;DHT22;22054;51.646;7.078;2023-04-02T19:08:22;6.30;1.00
35613;DHT22;22054;51.646;7.078;2023-04-02T19:11:00;6.20;1.00
35613;DHT22;22054;51.646;7.078;2023-04-02T19:13:29;6.20;1.00
35613;DHT22;22054;51.646;7.078;2023-04-02T19:16:09;6.00;1.00
35613;DHT22;22054;51.646;7.078;2023-04-02T19:25:04;5.80;1.00
35613;DHT22;22054;51.646;7.078;2023-04-02T19:31:28;5.70;1.00
35613;DHT22;22054;51.646;7.078;2023-04-02T19:37:10;5.60;1.00
35613;DHT22;22054;51.646;7.078;2023-04-02T19:44:44;5.60;3.40
35613;DHT22;22054;51.646;7.078;2023-04-02T19:47:13;5.50;1.00
35613;DHT22;22054;51.646;7.078;2023-04-02T19:49:41;5.50;18.30
35613;DHT22;22054;51.646;7.078;2023-04-02T19:52:06;5.50;19.00
35613;DHT22;22054;51.646;7.078;2023-04-02T19:54:32;5.50;19.70
35613;DHT22;22054;51.646;7.078;2023-04-02T19:56:59;5.40;18.70
35613;DHT22;22054;51.646;7.078;2023-04-02T19:59:25;5.40;28.60
35613;DHT22;22054;51.646;7.078;2023-04-02T20:01:51;5.30;33.50
35613;DHT22;22054;51.646;7.078;2023-04-02T20:04:17;5.30;41.60
35613;DHT22;22054;51.646;7.078;2023-04-02T20:06:43;5.30;50.20
35613;DHT22;22054;51.646;7.078;2023-04-02T20:09:08;5.20;48.50
35613;DHT22;22054;51.646;7.078;2023-04-02T20:11:36;5.20;65.10
35613;DHT22;22054;51.646;7.078;2023-04-02T20:14:02;5.10;68.80
35613;DHT22;22054;51.646;7.078;2023-04-02T20:16:28;5.10;77.10
35613;DHT22;22054;51.646;7.078;2023-04-02T20:18:54;5.00;94.70
35613;DHT22;22054;51.646;7.078;2023-04-02T20:21:22;5.00;99.90
35613;DHT22;22054;51.646;7.078;2023-04-02T20:23:54;4.90;99.90
35613;DHT22;22054;51.646;7.078;2023-04-02T20:26:20;4.80;99.90
35613;DHT22;22054;51.646;7.078;2023-04-02T20:28:47;4.70;99.90
35613;DHT22;22054;51.646;7.078;2023-04-02T20:31:17;4.70;99.90
35613;DHT22;22054;51.646;7.078;2023-04-02T20:33:43;4.60;99.90
35613;DHT22;22054;51.646;7.078;2023-04-02T20:36:12;4.60;99.90
35613;DHT22;22054;51.646;7.078;2023-04-02T20:38:39;4.60;99.90
35613;DHT22;22054;51.646;7.078;2023-04-02T20:41:06;4.50;99.90
35613;DHT22;22054;51.646;7.078;2023-04-02T20:43:32;4.50;99.90
35613;DHT22;22054;51.646;7.078;2023-04-02T20:46:00;4.50;99.90
35613;DHT22;22054;51.646;7.078;2023-04-02T20:48:32;4.60;99.90
35613;DHT22;22054;51.646;7.078;2023-04-02T20:51:01;4.90;99.90
35613;DHT22;22054;51.646;7.078;2023-04-02T20:53:28;4.60;99.90
35613;DHT22;22054;51.646;7.078;2023-04-02T20:56:21;4.60;99.90
35613;DHT22;22054;51.646;7.078;2023-04-02T20:58:50;4.50;99.90
35613;DHT22;22054;51.646;7.078;2023-04-02T21:01:25;4.50;99.90
35613;DHT22;22054;51.646;7.078;2023-04-02T21:03:54;4.60;99.90
35613;DHT22;22054;51.646;7.078;2023-04-02T21:06:22;4.40;99.90
35613;DHT22;22054;51.646;7.078;2023-04-02T21:08:51;4.00;99.90
35613;DHT22;22054;51.646;7.078;2023-04-02T21:11:17;4.30;99.90
35613;DHT22;22054;51.646;7.078;2023-04-02T21:13:47;4.20;99.90
35613;DHT22;22054;51.646;7.078;2023-04-02T21:16:22;4.20;99.90
35613;DHT22;22054;51.646;7.078;2023-04-02T21:19:00;4.20;99.90
35613;DHT22;22054;51.646;7.078;2023-04-02T21:21:28;4.20;99.90
35613;DHT22;22054;51.646;7.078;2023-04-02T21:23:57;4.10;99.90
35613;DHT22;22054;51.646;7.078;2023-04-02T21:26:24;4.10;99.90
35613;DHT22;22054;51.646;7.078;2023-04-02T21:28:52;4.10;99.90